Time;durP1;ratioP1;P1;durP2;ratioP2;P2;SDS_P1;SDS_P2;PMS_P1;PMS_P2;Temp;Humidity;BMP_temperature;BMP_pressure;BME280_temperature;BME280_humidity;BME280_pressure;Samples;Min_cycle;Max_cycle;Signal;HPM_P1;HPM_P2
2021/04/16 00:02:36;;;;;;;19.17;12.30;;;;;;;6.74;100.00;101368.91;5036468;28;20083;-72
2021/04/16 00:05:22;;;;;;;17.65;12.40;;;;;;;6.68;100.00;101369.75;5034850;28;20057;-72
2021/04/16 00:08:18;;;;;;;18.65;12.15;;;;;;;6.76;100.00;101372.41;5036058;28;20033;-72
2021/04/16 00:11:10;;;;;;;21.70;12.82;;;;;;;6.80;100.00;101375.06;5023520;28;20043;-72
2021/04/16 00:13:56;;;;;;;18.08;12.43;;;;;;;6.59;100.00;101376.59;5035499;28;20030;-73
2021/04/16 00:16:42;;;;;;;17.63;12.50;;;;;;;6.67;100.00;101378.41;5035263;28;20025;-72
2021/04/16 00:19:28;;;;;;;18.15;12.77;;;;;;;6.52;100.00;101380.00;5035210;28;20026;-73
2021/04/16 00:22:13;;;;;;;18.67;13.10;;;;;;;6.56;100.00;101374.84;5022375;28;20087;-72
2021/04/16 00:24:59;;;;;;;17.20;13.13;;;;;;;6.70;100.00;101380.16;5035777;28;20389;-72
2021/04/16 00:27:45;;;;;;;17.13;12.55;;;;;;;6.71;100.00;101376.72;5021306;28;20109;-72
2021/04/16 00:30:37;;;;;;;17.60;12.73;;;;;;;6.61;100.00;101377.47;5034936;28;20021;-74
2021/04/16 00:33:24;;;;;;;16.60;12.35;;;;;;;6.23;100.00;101376.25;5035203;28;20049;-72
2021/04/16 00:36:11;;;;;;;18.17;13.50;;;;;;;6.63;100.00;101374.03;5035031;28;20422;-71
2021/04/16 00:38:57;;;;;;;19.08;13.15;;;;;;;6.74;100.00;101371.50;5034812;28;20033;-72
2021/04/16 00:41:43;;;;;;;18.08;13.80;;;;;;;6.92;100.00;101369.06;5034576;28;20480;-72
2021/04/16 00:44:29;;;;;;;18.83;13.93;;;;;;;6.50;100.00;101364.38;5021812;28;20033;-72
2021/04/16 00:47:18;;;;;;;17.25;13.50;;;;;;;6.65;100.00;101371.44;5034619;28;20370;-72
2021/04/16 00:50:15;;;;;;;19.17;13.40;;;;;;;6.58;100.00;101373.13;5020520;28;20525;-72
2021/04/16 00:53:01;;;;;;;17.10;12.82;;;;;;;6.59;100.00;101368.78;5034412;28;20191;-71
2021/04/16 00:55:48;;;;;;;22.08;14.38;;;;;;;6.42;100.00;101371.22;5020506;28;20029;-72
2021/04/16 00:58:35;;;;;;;16.88;13.35;;;;;;;6.55;100.00;101377.44;5034352;28;20097;-71
2021/04/16 01:01:22;;;;;;;18.33;13.60;;;;;;;6.50;100.00;101379.97;5020731;28;20064;-72
2021/04/16 01:04:08;;;;;;;16.92;12.60;;;;;;;6.43;100.00;101380.78;5034571;28;20106;-73
2021/04/16 01:06:54;;;;;;;17.40;12.82;;;;;;;6.40;100.00;101383.38;5034747;28;20079;-71
2021/04/16 01:09:40;;;;;;;17.60;13.57;;;;;;;6.43;100.00;101383.38;5020846;28;20032;-72
2021/04/16 01:12:26;;;;;;;16.83;13.38;;;;;;;6.59;100.00;101387.03;5034535;28;20025;-72
2021/04/16 01:15:30;;;;;;;21.25;13.82;;;;;;;6.78;100.00;101387.19;5034207;28;20112;-72
2021/04/16 01:18:19;;;;;;;18.70;13.75;;;;;;;6.55;100.00;101393.06;5034562;28;20466;-72
2021/04/16 01:21:09;;;;;;;17.80;13.20;;;;;;;6.68;100.00;101387.97;5034161;28;20182;-72
2021/04/16 01:24:19;;;;;;;18.02;13.93;;;;;;;6.48;100.00;101391.25;5034063;28;20108;-72
2021/04/16 01:27:11;;;;;;;16.98;13.57;;;;;;;6.18;100.00;101384.00;5034548;28;20029;-73
2021/04/16 01:30:08;;;;;;;20.90;14.65;;;;;;;6.44;100.00;101389.47;5034556;28;20029;-72
2021/04/16 01:32:55;;;;;;;19.60;14.35;;;;;;;6.42;100.00;101391.16;5033859;28;20036;-72
2021/04/16 01:35:40;;;;;;;20.20;13.90;;;;;;;6.49;100.00;101383.44;5034048;28;20030;-72
2021/04/16 01:38:26;;;;;;;19.90;14.15;;;;;;;6.50;100.00;101389.50;5033771;28;20029;-72
2021/04/16 01:41:15;;;;;;;19.15;14.43;;;;;;;6.47;100.00;101392.09;5033890;28;20108;-72
2021/04/16 01:44:11;;;;;;;18.17;13.98;;;;;;;6.60;100.00;101392.25;5034181;28;20018;-72
2021/04/16 01:47:09;;;;;;;20.15;14.52;;;;;;;6.49;100.00;101398.19;5020374;28;20071;-73
2021/04/16 01:49:55;;;;;;;19.77;15.05;;;;;;;6.69;100.00;101394.03;5020989;28;20018;-72
2021/04/16 01:52:40;;;;;;;19.45;14.85;;;;;;;6.67;100.00;101403.59;5032882;28;20036;-72
2021/04/16 01:55:27;;;;;;;19.92;15.10;;;;;;;6.50;100.00;101395.59;5032850;28;20040;-72
2021/04/16 01:58:13;;;;;;;20.77;15.13;;;;;;;6.26;100.00;101405.75;5034248;28;20048;-72
2021/04/16 02:00:59;;;;;;;20.02;15.52;;;;;;;6.26;100.00;101404.91;5019545;28;20032;-72
2021/04/16 02:03:45;;;;;;;19.60;15.25;;;;;;;6.20;100.00;101404.81;5019819;28;20033;-72
2021/04/16 02:06:34;;;;;;;20.25;15.30;;;;;;;6.41;100.00;101403.31;5019630;28;20057;-72
2021/04/16 02:09:24;;;;;;;20.08;15.27;;;;;;;6.29;100.00;101404.91;5033860;28;20022;-72
2021/04/16 02:12:12;;;;;;;21.25;14.93;;;;;;;6.23;100.00;101404.88;5033988;28;20029;-72
2021/04/16 02:14:58;;;;;;;20.42;15.45;;;;;;;6.20;100.00;101404.81;5020756;28;20072;-73
2021/04/16 02:17:44;;;;;;;20.50;15.30;;;;;;;6.39;100.00;101407.63;5019006;28;20021;-72
2021/04/16 02:20:30;;;;;;;21.98;15.10;;;;;;;6.24;100.00;101406.59;5036726;28;20029;-73
2021/04/16 02:23:15;;;;;;;23.23;16.10;;;;;;;6.27;100.00;101406.66;5037339;28;20113;-73
2021/04/16 02:26:01;;;;;;;21.88;16.00;;;;;;;6.19;100.00;101405.69;5036879;28;20029;-73
2021/04/16 02:28:47;;;;;;;22.30;16.25;;;;;;;6.05;100.00;101417.66;5023349;28;20017;-72
2021/04/16 02:31:33;;;;;;;21.27;15.43;;;;;;;6.34;100.00;101411.91;5037344;28;20087;-72
2021/04/16 02:34:22;;;;;;;20.77;15.48;;;;;;;6.68;100.00;101421.81;5036926;28;20060;-73
2021/04/16 02:37:12;;;;;;;27.35;16.42;;;;;;;6.21;100.00;101416.97;5037021;28;20113;-73
2021/04/16 02:39:59;;;;;;;27.08;16.55;;;;;;;6.24;100.00;101417.00;5037278;28;20084;-72
2021/04/16 02:42:45;;;;;;;23.33;16.85;;;;;;;6.27;100.00;101422.25;5037770;28;20044;-72
2021/04/16 02:45:31;;;;;;;22.25;16.33;;;;;;;6.30;100.00;101422.28;5037724;28;20029;-73
2021/04/16 02:48:18;;;;;;;22.50;17.17;;;;;;;6.31;100.00;101424.88;5037559;28;20047;-73
2021/04/16 02:51:04;;;;;;;20.50;15.52;;;;;;;6.12;100.00;101420.34;5036772;28;20013;-72
2021/04/16 02:53:50;;;;;;;22.85;17.05;;;;;;;6.11;100.00;101421.19;5036725;28;20453;-72
2021/04/16 02:56:36;;;;;;;22.08;16.25;;;;;;;6.16;100.00;101421.25;5036120;28;20029;-72
2021/04/16 02:59:23;;;;;;;22.70;16.98;;;;;;;6.20;100.00;101426.53;5036485;28;20040;-72
2021/04/16 03:02:09;;;;;;;24.90;17.77;;;;;;;5.95;100.00;101427.06;5036595;28;20033;-72
2021/04/16 03:04:55;;;;;;;23.20;17.13;;;;;;;6.07;100.00;101423.75;5036418;28;20049;-72
2021/04/16 03:07:41;;;;;;;25.83;16.88;;;;;;;6.23;100.00;101415.28;5036568;28;20033;-72
2021/04/16 03:10:30;;;;;;;23.17;16.80;;;;;;;6.35;100.00;101421.47;5036732;28;20100;-72
2021/04/16 03:13:16;;;;;;;23.98;16.15;;;;;;;6.12;100.00;101429.88;5036131;28;20350;-72
2021/04/16 03:16:03;;;;;;;23.85;16.92;;;;;;;6.18;100.00;101428.22;5036411;28;20108;-72
2021/04/16 03:18:49;;;;;;;23.92;16.77;;;;;;;6.23;100.00;101430.88;5036268;28;20099;-72
2021/04/16 03:21:34;;;;;;;22.55;16.23;;;;;;;6.12;100.00;101440.28;5036267;28;20114;-71
2021/04/16 03:24:20;;;;;;;22.50;16.65;;;;;;;6.15;100.00;101441.19;5036350;28;20034;-72
2021/04/16 03:27:07;;;;;;;22.95;16.45;;;;;;;6.27;100.00;101443.06;5036371;28;20099;-71
2021/04/16 03:29:52;;;;;;;22.45;16.02;;;;;;;5.97;100.00;101442.69;5035793;28;20028;-71
2021/04/16 03:32:38;;;;;;;24.67;17.08;;;;;;;6.04;100.00;101440.19;5034797;28;20025;-72
2021/04/16 03:35:25;;;;;;;23.23;15.98;;;;;;;5.92;100.00;101447.84;5035943;28;20037;-72
2021/04/16 03:38:11;;;;;;;25.60;17.08;;;;;;;5.95;100.00;101445.25;5036366;28;20110;-71
2021/04/16 03:40:57;;;;;;;22.92;16.48;;;;;;;5.96;100.00;101451.34;5035790;28;20123;-72
2021/04/16 03:43:44;;;;;;;22.13;16.60;;;;;;;5.99;100.00;101449.66;5021713;28;20033;-72
2021/04/16 03:46:30;;;;;;;22.90;16.30;;;;;;;6.10;100.00;101455.00;5022954;28;20025;-72
2021/04/16 03:49:16;;;;;;;23.95;16.38;;;;;;;5.91;100.00;101445.22;5035665;28;20116;-72
2021/04/16 03:52:04;;;;;;;21.58;16.60;;;;;;;6.21;100.00;101445.59;5036345;28;20540;-72
2021/04/16 03:54:50;;;;;;;23.33;16.75;;;;;;;6.08;100.00;101447.19;5035468;28;20477;-72
2021/04/16 03:57:36;;;;;;;22.92;16.00;;;;;;;6.00;100.00;101453.13;5034825;28;20063;-72
2021/04/16 04:00:31;;;;;;;20.77;15.98;;;;;;;5.88;100.00;101452.97;5035290;28;20025;-71
2021/04/16 04:03:16;;;;;;;24.45;16.13;;;;;;;6.06;100.00;101463.63;5035158;28;20108;-72
2021/04/16 04:06:04;;;;;;;22.92;16.30;;;;;;;6.62;100.00;101465.13;5035846;28;20038;-71
2021/04/16 04:08:49;;;;;;;22.30;16.25;;;;;;;6.33;100.00;101461.34;5034917;28;20044;-71
2021/04/16 04:11:35;;;;;;;21.75;15.93;;;;;;;6.31;100.00;101469.13;5034678;28;20037;-71
2021/04/16 04:14:22;;;;;;;21.17;15.43;;;;;;;6.14;100.00;101465.47;5035926;28;20041;-72
2021/04/16 04:17:09;;;;;;;22.75;16.38;;;;;;;6.09;100.00;101467.13;5034984;28;20106;-71
2021/04/16 04:19:55;;;;;;;21.55;16.00;;;;;;;6.16;100.00;101470.69;5034947;28;20031;-72
2021/04/16 04:22:41;;;;;;;20.48;15.27;;;;;;;6.21;100.00;101477.69;5021053;28;20025;-72
2021/04/16 04:25:29;;;;;;;21.10;15.52;;;;;;;6.37;100.00;101481.34;5020862;28;20060;-72
2021/04/16 04:28:14;;;;;;;19.55;15.95;;;;;;;6.06;100.00;101474.88;5035360;28;20041;-72
2021/04/16 04:31:00;;;;;;;20.10;15.10;;;;;;;6.20;100.00;101470.75;5034818;28;20029;-73
2021/04/16 04:33:46;;;;;;;21.05;15.13;;;;;;;6.35;100.00;101475.25;5034856;28;20087;-72
2021/04/16 04:36:32;;;;;;;23.92;15.25;;;;;;;6.23;100.00;101478.56;5020296;28;20425;-72
2021/04/16 04:39:19;;;;;;;21.27;15.43;;;;;;;6.45;100.00;101482.31;5034490;28;20033;-72
2021/04/16 04:42:06;;;;;;;22.35;15.60;;;;;;;6.70;100.00;101484.31;5020768;28;20108;-72
2021/04/16 04:44:52;;;;;;;20.90;14.93;;;;;;;6.66;100.00;101487.72;5034922;28;20029;-71
2021/04/16 04:47:37;;;;;;;21.85;15.00;;;;;;;6.82;100.00;101489.63;5020497;28;20017;-72
2021/04/16 04:50:25;;;;;;;21.13;14.77;;;;;;;6.58;100.00;101491.97;5034312;28;20021;-72
2021/04/16 04:53:11;;;;;;;21.13;15.45;;;;;;;6.46;100.00;101497.06;5034220;28;20033;-72
2021/04/16 04:55:56;;;;;;;21.02;15.00;;;;;;;6.40;100.00;101507.41;5034166;28;20126;-72
2021/04/16 04:58:42;;;;;;;19.73;15.20;;;;;;;6.60;100.00;101500.69;5034742;28;20067;-73
2021/04/16 05:01:28;;;;;;;20.27;14.45;;;;;;;6.80;100.00;101504.38;5034263;28;20048;-72
2021/04/16 05:04:14;;;;;;;23.33;15.43;;;;;;;6.75;100.00;101506.94;5021387;28;20025;-72
2021/04/16 05:07:00;;;;;;;21.75;14.82;;;;;;;6.73;100.00;101508.66;5015256;28;20065;-72
2021/04/16 05:09:46;;;;;;;21.45;15.15;;;;;;;6.90;100.00;101516.63;5014473;28;20124;-72
2021/04/16 05:12:32;;;;;;;20.75;15.50;;;;;;;6.84;100.00;101513.97;5014814;28;20029;-73
2021/04/16 05:15:19;;;;;;;24.48;16.38;;;;;;;6.91;100.00;101516.66;5014302;28;20040;-73
2021/04/16 05:18:05;;;;;;;22.05;16.02;;;;;;;6.97;100.00;101523.66;5013292;28;20022;-71
2021/04/16 05:20:51;;;;;;;20.33;15.05;;;;;;;7.12;100.00;101514.25;5014137;28;20038;-72
2021/04/16 05:23:37;;;;;;;24.20;16.02;;;;;;;6.89;100.00;101512.28;5014113;28;20022;-72
2021/04/16 05:26:23;;;;;;;21.23;15.57;;;;;;;7.12;100.00;101514.25;5015011;28;20371;-72
2021/04/16 05:29:09;;;;;;;24.73;16.50;;;;;;;7.31;100.00;101507.47;5013656;28;20057;-72
2021/04/16 05:31:55;;;;;;;21.05;15.82;;;;;;;7.22;100.00;101513.47;5013841;28;20037;-73
2021/04/16 05:34:42;;;;;;;25.73;15.70;;;;;;;7.43;100.00;101507.59;5017131;28;20120;-71
2021/04/16 05:37:28;;;;;;;64.43;45.25;;;;;;;7.44;100.00;101504.97;5019895;28;20033;-71
2021/04/16 05:40:14;;;;;;;24.42;16.02;;;;;;;7.41;100.00;101506.69;5013837;28;20034;-72
2021/04/16 05:43:00;;;;;;;25.38;16.92;;;;;;;7.55;100.00;101518.97;5013577;28;20092;-73
2021/04/16 05:45:46;;;;;;;22.50;15.88;;;;;;;7.54;100.00;101518.94;5013599;28;20029;-72
2021/04/16 05:48:32;;;;;;;20.85;15.43;;;;;;;7.64;100.00;101512.94;5013004;28;20109;-72
2021/04/16 05:51:17;;;;;;;23.15;15.40;;;;;;;7.81;100.00;101516.53;5014285;28;20026;-72
2021/04/16 05:54:04;;;;;;;23.55;16.25;;;;;;;7.83;100.00;101514.78;5014244;28;20021;-72
2021/04/16 05:56:50;;;;;;;23.45;15.43;;;;;;;7.73;100.00;101507.78;5017131;28;20465;-72
2021/04/16 05:59:36;;;;;;;21.30;14.93;;;;;;;7.83;100.00;101517.41;5017616;28;20087;-71
2021/04/16 06:02:31;;;;;;;19.98;15.15;;;;;;;8.09;100.00;101516.72;5017177;28;20030;-72
2021/04/16 06:05:20;;;;;;;20.17;15.38;;;;;;;8.17;100.00;101514.13;5024953;28;20060;-73
2021/04/16 06:08:06;;;;;;;24.38;15.85;;;;;;;8.47;100.00;101516.91;5024982;28;20452;-73
2021/04/16 06:10:52;;;;;;;21.05;15.43;;;;;;;8.23;100.00;101525.50;5037677;28;20106;-73
2021/04/16 06:13:39;;;;;;;22.77;14.50;;;;;;;8.12;100.00;101515.84;5037194;28;20021;-72
2021/04/16 06:16:25;;;;;;;21.63;15.63;;;;;;;8.19;100.00;101513.28;5037571;28;20123;-74
2021/04/16 06:19:10;;;;;;;22.10;14.70;;;;;;;8.62;100.00;101523.06;5038074;28;20095;-74
2021/04/16 06:21:56;;;;;;;20.38;14.57;;;;;;;8.82;100.00;101510.03;5037599;28;20037;-73
2021/04/16 06:24:42;;;;;;;21.35;14.95;;;;;;;8.96;100.00;101524.88;5037411;28;20104;-74
2021/04/16 06:27:28;;;;;;;19.77;13.52;;;;;;;9.27;100.00;101512.72;5037484;28;20025;-73
2021/04/16 06:30:15;;;;;;;20.65;13.02;;;;;;;8.87;100.00;101514.41;5036898;28;20026;-72
2021/04/16 06:33:06;;;;;;;18.17;13.15;;;;;;;9.13;100.00;101514.47;5023706;28;20112;-73
2021/04/16 06:35:58;;;;;;;17.50;12.88;;;;;;;9.05;100.00;101518.81;5036634;28;20060;-74
2021/04/16 06:38:45;;;;;;;18.38;12.15;;;;;;;9.12;100.00;101516.19;5037362;28;20029;-73
2021/04/16 06:41:32;;;;;;;19.85;12.50;;;;;;;9.31;100.00;101509.22;5022507;28;20087;-74
2021/04/16 06:44:27;;;;;;;16.73;12.25;;;;;;;9.20;100.00;101510.97;5022918;28;20040;-74
2021/04/16 06:47:44;;;;;;;15.20;11.68;;;;;;;9.04;100.00;101517.94;5022249;28;20465;-73
2021/04/16 06:50:33;;;;;;;17.48;11.90;;;;;;;9.37;100.00;101512.72;5032389;28;20052;-74
2021/04/16 06:53:44;;;;;;;15.27;11.55;;;;;;;9.20;100.00;101516.19;5023572;28;20442;-73
2021/04/16 06:56:42;;;;;;;14.45;10.82;;;;;;;9.33;100.00;101516.19;5036510;28;20036;-74
2021/04/16 06:59:32;;;;;;;14.85;11.18;;;;;;;9.22;100.00;101504.00;5022979;28;20147;-73
2021/04/16 07:02:18;;;;;;;17.05;11.50;;;;;;;9.53;100.00;101518.84;5035849;28;20393;-72
2021/04/16 07:05:19;;;;;;;18.45;11.48;;;;;;;9.54;100.00;101510.09;5022923;28;20466;-73
2021/04/16 07:08:06;;;;;;;13.93;11.20;;;;;;;9.86;100.00;101513.56;5035704;28;20049;-73
2021/04/16 07:10:55;;;;;;;14.82;10.75;;;;;;;9.96;100.00;101512.66;5023146;28;20108;-74
2021/04/16 07:13:42;;;;;;;14.32;10.77;;;;;;;10.13;100.00;101520.50;5036235;28;20072;-73
2021/04/16 07:16:38;;;;;;;13.45;10.60;;;;;;;10.12;100.00;101517.00;5022910;28;20029;-73
2021/04/16 07:19:37;;;;;;;14.02;10.25;;;;;;;10.39;100.00;101530.00;5023273;28;20033;-73
2021/04/16 07:22:45;;;;;;;13.93;10.68;;;;;;;10.16;100.00;101525.75;5036930;28;20025;-73
2021/04/16 07:25:54;;;;;;;13.75;10.40;;;;;;;10.12;100.00;101529.25;5036958;28;20442;-73
2021/04/16 07:28:53;;;;;;;12.50;9.80;;;;;;;10.34;100.00;101528.28;5037130;28;20531;-75
2021/04/16 07:31:43;;;;;;;11.73;9.52;;;;;;;10.59;100.00;101512.44;5035066;28;20094;-72
2021/04/16 07:34:29;;;;;;;13.55;10.00;;;;;;;10.92;100.00;101528.00;5035745;28;20032;-73
2021/04/16 07:37:14;;;;;;;13.00;9.52;;;;;;;10.58;99.22;101512.47;5021435;28;20355;-72
2021/04/16 07:40:05;;;;;;;13.88;9.43;;;;;;;10.58;99.40;101513.34;5021638;28;20116;-72
2021/04/16 07:42:52;;;;;;;14.13;9.27;;;;;;;10.86;97.07;101522.81;5021522;28;20022;-73
2021/04/16 07:45:44;;;;;;;26.08;9.20;;;;;;;10.69;92.92;101532.47;5035119;28;20060;-73
2021/04/16 07:48:33;;;;;;;11.02;8.32;;;;;;;11.04;88.51;101521.78;5022424;28;20021;-73
2021/04/16 07:51:31;;;;;;;13.77;8.07;;;;;;;10.92;86.95;101522.75;5022511;28;20017;-73
2021/04/16 07:54:23;;;;;;;14.73;8.02;;;;;;;11.21;86.73;101522.56;5038168;28;20021;-73
2021/04/16 07:57:12;;;;;;;9.88;7.13;;;;;;;11.26;81.65;101533.88;5024429;28;20448;-73
2021/04/16 08:00:02;;;;;;;10.40;7.80;;;;;;;11.74;80.62;101530.91;5023804;28;20035;-73
2021/04/16 08:02:50;;;;;;;10.98;7.47;;;;;;;11.41;81.11;101523.28;5037785;28;20025;-73
2021/04/16 08:05:44;;;;;;;12.02;7.70;;;;;;;11.77;81.25;101530.88;5036043;28;20041;-73
2021/04/16 08:08:33;;;;;;;9.23;6.65;;;;;;;11.88;77.12;101532.50;5035576;28;20344;-73
2021/04/16 08:11:24;;;;;;;12.52;6.95;;;;;;;12.13;74.46;101527.88;5022621;28;20025;-73
2021/04/16 08:14:25;;;;;;;8.60;7.00;;;;;;;12.12;73.75;101523.50;5021859;28;20537;-73
2021/04/16 08:17:29;;;;;;;10.75;6.78;;;;;;;12.12;74.26;101513.88;5020708;28;20063;-74
2021/04/16 08:20:29;;;;;;;9.82;6.72;;;;;;;12.42;71.71;101510.88;5035593;28;20463;-72
2021/04/16 08:23:15;;;;;;;12.57;7.13;;;;;;;12.73;68.28;101520.09;5034908;28;20033;-72
2021/04/16 08:26:04;;;;;;;10.60;7.47;;;;;;;12.93;67.10;101520.69;5034566;28;20036;-73
2021/04/16 08:29:12;;;;;;;9.50;6.70;;;;;;;12.57;65.11;101515.94;5021276;28;20148;-73
2021/04/16 08:32:08;;;;;;;14.23;5.70;;;;;;;12.97;62.77;101517.16;5034607;28;20032;-71
2021/04/16 08:35:16;;;;;;;8.80;5.88;;;;;;;13.14;62.07;101515.16;5036327;28;20034;-72
2021/04/16 08:38:12;;;;;;;7.55;5.45;;;;;;;13.26;58.17;101511.47;5038572;28;20383;-73
2021/04/16 08:41:05;;;;;;;10.05;5.78;;;;;;;13.10;57.78;101513.44;5033919;28;20032;-74
2021/04/16 08:44:01;;;;;;;6.43;5.13;;;;;;;13.26;56.32;101519.38;5035026;28;20032;-73
2021/04/16 08:46:49;;;;;;;8.43;5.47;;;;;;;13.56;56.96;101514.47;5020832;28;20021;-72
2021/04/16 08:49:35;;;;;;;7.40;5.38;;;;;;;13.54;55.10;101521.50;5034935;28;20029;-73
2021/04/16 08:52:32;;;;;;;9.63;5.90;;;;;;;13.51;56.22;101507.53;5034510;28;20055;-72
2021/04/16 08:55:23;;;;;;;8.60;5.53;;;;;;;13.21;56.78;101524.69;5033787;28;20059;-73
2021/04/16 08:58:09;;;;;;;6.20;5.57;;;;;;;13.79;56.54;101500.91;5034518;28;20029;-72
2021/04/16 09:01:07;;;;;;;7.60;5.65;;;;;;;14.15;55.88;101505.47;5034585;28;20094;-73
2021/04/16 09:03:55;;;;;;;6.97;5.63;;;;;;;13.77;56.50;101507.94;5035211;28;20091;-73
2021/04/16 09:06:41;;;;;;;11.65;5.55;;;;;;;14.20;52.81;101507.09;5034472;28;20119;-73
2021/04/16 09:09:45;;;;;;;7.68;5.85;;;;;;;13.65;54.07;101503.78;5035424;28;20034;-74
2021/04/16 09:12:51;;;;;;;9.07;5.20;;;;;;;13.53;52.55;101498.72;5034348;28;20123;-73
2021/04/16 09:15:40;;;;;;;6.95;5.00;;;;;;;13.77;51.41;101514.09;5020596;28;20083;-73
2021/04/16 09:18:29;;;;;;;9.48;6.05;;;;;;;13.57;52.36;101517.94;5020011;28;20458;-73
2021/04/16 09:21:23;;;;;;;7.13;5.72;;;;;;;13.96;50.68;101502.34;5020027;28;20065;-72
2021/04/16 09:24:11;;;;;;;17.17;5.45;;;;;;;13.78;51.06;101518.47;5032567;28;20028;-73
2021/04/16 09:26:59;;;;;;;15.15;6.05;;;;;;;13.87;51.80;101501.63;5020567;28;20434;-73
2021/04/16 09:29:45;;;;;;;11.75;5.60;;;;;;;13.82;51.37;101500.81;5033322;28;20120;-73
2021/04/16 09:32:35;;;;;;;7.18;5.75;;;;;;;13.77;51.55;101495.66;5034270;28;20043;-72
2021/04/16 09:35:26;;;;;;;10.07;6.38;;;;;;;13.78;52.24;101500.03;5032948;28;20343;-72
2021/04/16 09:38:34;;;;;;;7.88;5.50;;;;;;;13.91;50.97;101493.63;5032993;28;20033;-73
2021/04/16 09:41:24;;;;;;;7.72;6.00;;;;;;;13.77;52.17;101493.03;5032540;28;20386;-72
2021/04/16 09:44:28;;;;;;;9.25;5.55;;;;;;;13.52;53.26;101486.47;5034486;28;20033;-72
2021/04/16 12:39:03;;;;;;;6.68;2.83;;;;;;;14.44;42.85;101439.88;5055280;28;20028;-74
2021/04/16 12:41:54;;;;;;;15.38;7.35;;;;;;;14.43;42.38;101444.28;5039796;28;20024;-73
2021/04/16 12:44:48;;;;;;;42.70;30.10;;;;;;;14.52;43.05;101436.16;5054328;28;20318;-74
2021/04/16 12:47:34;;;;;;;8.05;4.38;;;;;;;14.61;42.43;101427.19;5054890;28;20107;-74
2021/04/16 12:50:20;;;;;;;4.93;3.20;;;;;;;14.82;41.95;101429.31;5054531;28;20036;-73
2021/04/16 12:53:06;;;;;;;8.55;3.33;;;;;;;14.56;42.32;101435.19;5054998;28;20021;-75
2021/04/16 12:55:51;;;;;;;5.07;3.22;;;;;;;14.37;42.74;101425.97;5054139;28;20103;-73
2021/04/16 12:58:40;;;;;;;3.70;2.90;;;;;;;14.03;43.37;101416.13;5054170;28;20099;-73
2021/04/16 13:01:29;;;;;;;7.05;3.60;;;;;;;13.98;43.13;101424.13;5039027;28;20533;-74
2021/04/16 13:04:18;;;;;;;7.65;3.85;;;;;;;14.53;43.28;101427.38;5053530;28;20075;-74
2021/04/16 13:07:07;;;;;;;5.80;3.60;;;;;;;14.49;42.60;101425.69;5053854;28;20401;-73
2021/04/16 13:09:53;;;;;;;4.82;3.47;;;;;;;14.77;43.20;101434.72;5054598;28;20033;-74
2021/04/16 13:12:39;;;;;;;6.93;3.80;;;;;;;14.69;42.64;101430.50;5054449;28;20067;-74
2021/04/16 13:15:25;;;;;;;6.10;3.75;;;;;;;14.91;42.54;101421.19;5053996;28;20029;-74
2021/04/16 13:18:24;;;;;;;5.78;4.05;;;;;;;15.13;42.35;101426.81;5053797;28;20171;-73
2021/04/16 13:21:40;;;;;;;8.13;3.50;;;;;;;14.95;41.79;101443.94;5053593;28;20458;-73
2021/04/16 13:24:38;;;;;;;7.28;3.80;;;;;;;14.68;41.38;101431.41;5033371;28;20033;-74
2021/04/16 13:27:26;;;;;;;6.72;4.30;;;;;;;14.83;41.84;101433.69;5054099;28;20543;-73
2021/04/16 13:30:15;;;;;;;11.43;7.75;;;;;;;14.85;42.41;101431.88;5038001;28;20025;-72
2021/04/16 13:33:12;;;;;;;4.85;3.85;;;;;;;15.28;41.63;101435.22;5054278;28;20432;-72
2021/04/16 13:36:01;;;;;;;19.83;14.93;;;;;;;15.49;41.73;101445.28;5054003;28;20021;-73
2021/04/16 13:38:47;;;;;;;5.90;4.40;;;;;;;15.01;42.09;101448.22;5040251;28;20388;-74
2021/04/16 13:41:32;;;;;;;6.78;4.70;;;;;;;15.14;41.96;101444.41;5052812;28;20438;-74
2021/04/16 13:44:18;;;;;;;8.27;4.35;;;;;;;15.01;42.55;101442.94;5053431;28;20025;-73
2021/04/16 13:47:06;;;;;;;9.18;4.40;;;;;;;15.27;41.08;101433.47;5053327;28;20036;-73
2021/04/16 13:49:56;;;;;;;6.78;3.70;;;;;;;14.93;41.33;101440.50;5038708;28;20366;-72
2021/04/16 13:52:43;;;;;;;5.60;4.10;;;;;;;14.99;41.46;101444.75;5053439;28;20029;-72
2021/04/16 13:55:29;;;;;;;6.65;3.92;;;;;;;14.67;42.36;101438.44;5053101;28;20036;-72
2021/04/16 13:58:15;;;;;;;6.18;3.90;;;;;;;14.32;42.99;101446.25;5053950;28;20024;-72
2021/04/16 14:01:02;;;;;;;6.88;4.28;;;;;;;13.47;44.06;101440.88;5053037;28;20445;-72
2021/04/16 14:03:50;;;;;;;6.35;4.10;;;;;;;13.92;44.62;101444.44;5053376;28;20029;-73
2021/04/16 14:06:38;;;;;;;5.38;4.13;;;;;;;14.21;44.85;101432.47;5053140;28;20205;-72
2021/04/16 14:09:26;;;;;;;10.85;4.25;;;;;;;14.45;44.12;101439.84;5053786;28;20017;-72
2021/04/16 14:12:12;;;;;;;6.38;4.82;;;;;;;13.98;43.63;101431.13;5053070;28;20067;-72
2021/04/16 14:14:58;;;;;;;7.05;4.68;;;;;;;14.26;43.74;101435.88;5054161;28;20047;-72
2021/04/16 14:17:56;;;;;;;8.27;4.78;;;;;;;13.73;44.45;101433.41;5057032;28;20029;-72
2021/04/16 14:20:42;;;;;;;6.75;4.93;;;;;;;13.69;44.81;101430.84;5056840;28;20044;-72
2021/04/16 14:23:28;;;;;;;6.00;4.55;;;;;;;13.72;44.55;101431.69;5041878;28;20381;-74
2021/04/16 14:26:15;;;;;;;6.72;4.45;;;;;;;13.61;44.89;101435.38;5057316;28;20112;-73
2021/04/16 14:29:01;;;;;;;8.45;4.22;;;;;;;13.88;44.57;101435.75;5043622;28;20040;-73
2021/04/16 14:31:47;;;;;;;7.72;4.50;;;;;;;14.25;44.43;101434.13;5057242;28;20068;-72
2021/04/16 14:34:34;;;;;;;6.88;4.53;;;;;;;13.89;45.52;101439.22;5057500;28;20056;-73
2021/04/16 14:37:20;;;;;;;4.80;3.97;;;;;;;13.62;46.16;101448.53;5057041;28;20056;-73
2021/04/16 14:40:07;;;;;;;5.93;4.40;;;;;;;13.58;46.24;101452.09;5060842;28;20083;-73
2021/04/16 14:42:53;;;;;;;4.97;4.45;;;;;;;13.85;45.53;101461.25;5058702;28;20174;-73
2021/04/16 14:45:43;;;;;;;5.85;4.43;;;;;;;13.53;46.09;101460.97;5057609;28;20335;-73
2021/04/16 14:48:30;;;;;;;8.93;5.40;;;;;;;13.57;46.31;101455.66;5056821;28;20035;-74
2021/04/16 14:51:16;;;;;;;21.48;14.77;;;;;;;13.86;46.75;101461.22;5056955;28;20029;-73
2021/04/16 14:54:09;;;;;;;7.60;4.38;;;;;;;13.58;46.50;101460.00;5042304;28;20025;-74
2021/04/16 14:56:55;;;;;;;8.02;3.85;;;;;;;13.66;45.79;101452.84;5057071;28;20025;-73
2021/04/16 14:59:44;;;;;;;5.00;3.83;;;;;;;13.73;46.08;101453.59;5057013;28;20335;-73
2021/04/16 15:02:29;;;;;;;4.18;3.55;;;;;;;13.64;46.26;101454.66;5055492;28;20473;-73
2021/04/16 15:05:18;;;;;;;5.30;3.47;;;;;;;13.72;46.80;101463.28;5056600;28;20526;-73
2021/04/16 15:08:21;;;;;;;7.32;3.65;;;;;;;13.49;46.85;101457.53;5056876;28;20028;-73
2021/04/16 15:11:09;;;;;;;4.88;3.33;;;;;;;13.32;47.13;101462.25;5056931;28;20075;-73
2021/04/16 15:13:55;;;;;;;4.07;3.67;;;;;;;13.64;47.19;101459.91;5056069;28;20120;-73
2021/04/16 15:16:46;;;;;;;4.93;3.50;;;;;;;13.25;47.81;101457.06;5056516;28;20349;-72
2021/04/16 15:19:39;;;;;;;4.93;3.78;;;;;;;13.35;47.87;101456.91;5041095;28;20049;-73
2021/04/16 15:22:28;;;;;;;7.13;3.78;;;;;;;13.46;47.33;101461.97;5056113;28;20043;-73
2021/04/16 15:25:14;;;;;;;8.25;4.13;;;;;;;13.40;47.59;101462.97;5055467;28;20033;-73
2021/04/16 15:28:08;;;;;;;9.05;4.00;;;;;;;13.20;47.83;101465.06;5056506;28;20025;-73
2021/04/16 15:31:05;;;;;;;4.40;3.45;;;;;;;13.00;48.21;101454.00;5055405;28;20021;-72
2021/04/16 15:46:44;;;;;;;10.38;4.22;;;;;;;13.08;48.66;101456.50;5056287;28;20029;-72
2021/04/16 15:49:29;;;;;;;5.93;4.07;;;;;;;12.81;48.97;101449.88;5046717;28;20025;-73
2021/04/16 15:52:15;;;;;;;6.90;4.78;;;;;;;12.84;48.62;101460.34;5054895;28;20462;-73
2021/04/16 15:55:03;;;;;;;14.32;8.45;;;;;;;12.82;48.98;101461.25;5055138;28;20052;-72
2021/04/16 15:57:49;;;;;;;9.60;6.78;;;;;;;13.04;48.38;101467.97;5041388;28;20020;-72
2021/04/16 16:00:40;;;;;;;7.70;4.50;;;;;;;12.98;48.18;101466.28;5040366;28;20036;-73